Time;durP1;ratioP1;P1;durP2;ratioP2;P2;SDS_P1;SDS_P2;PMS_P1;PMS_P2;Temp;Humidity;BMP_temperature;BMP_pressure;BME280_temperature;BME280_humidity;BME280_pressure;Samples;Min_cycle;Max_cycle;Signal;HPM_P1;HPM_P2
2022/07/13 00:01:14;;;;;;;1.60;1.00;;;;;;;13.89;64.47;95103.84;4993579;28;20209;-73
2022/07/13 00:03:41;;;;;;;1.15;0.90;;;;;;;13.85;64.43;95092.03;4993499;28;20217;-74
2022/07/13 00:06:08;;;;;;;1.15;0.90;;;;;;;13.80;65.28;95103.16;4993882;28;20210;-74
2022/07/13 00:08:35;;;;;;;1.58;1.00;;;;;;;13.80;65.70;95100.44;4993878;28;20285;-74
2022/07/13 00:11:01;;;;;;;2.00;1.02;;;;;;;13.84;66.14;95098.63;4993591;28;20217;-74
2022/07/13 00:13:30;;;;;;;1.30;1.20;;;;;;;13.93;65.82;95095.81;4993708;28;20209;-74
2022/07/13 00:15:56;;;;;;;1.27;1.10;;;;;;;13.99;65.14;95097.97;4993397;28;20309;-74
2022/07/13 00:18:24;;;;;;;2.55;1.27;;;;;;;14.03;65.28;95098.91;4992596;28;20307;-74
2022/07/13 00:20:50;;;;;;;2.60;1.45;;;;;;;14.00;64.99;95094.13;4992776;28;20234;-74
2022/07/13 00:23:18;;;;;;;2.85;1.10;;;;;;;13.94;65.63;95100.91;4993066;28;20209;-74
2022/07/13 00:25:45;;;;;;;0.68;0.68;;;;;;;14.00;67.46;95101.50;4993559;28;20222;-74
2022/07/13 00:28:12;;;;;;;0.75;0.75;;;;;;;13.87;67.75;95085.13;4993269;28;20212;-74
2022/07/13 00:30:40;;;;;;;1.63;1.15;;;;;;;13.86;68.19;95088.19;4993865;28;20201;-74
2022/07/13 00:33:07;;;;;;;0.80;0.80;;;;;;;13.77;67.37;95095.66;4993420;28;20320;-74
2022/07/13 00:35:34;;;;;;;0.70;0.70;;;;;;;13.60;68.20;95096.63;4993200;28;20206;-74
2022/07/13 00:38:01;;;;;;;0.90;0.80;;;;;;;13.46;68.44;95099.63;4993658;28;20198;-74
2022/07/13 00:40:28;;;;;;;0.95;0.75;;;;;;;13.44;68.59;95099.16;4993027;28;20284;-74
2022/07/13 00:42:57;;;;;;;5.72;1.10;;;;;;;13.43;68.89;95102.22;4993104;28;20637;-74
2022/07/13 00:45:24;;;;;;;1.17;1.00;;;;;;;13.42;68.96;95095.16;4992666;28;20244;-74
2022/07/13 00:47:52;;;;;;;1.20;1.10;;;;;;;13.39;69.39;95096.63;4993045;28;20209;-74
2022/07/13 00:50:19;;;;;;;0.98;0.88;;;;;;;13.41;69.34;95099.81;4992850;28;20198;-74
2022/07/13 00:52:47;;;;;;;4.25;1.52;;;;;;;13.44;69.60;95093.72;4992875;28;20673;-74
2022/07/13 00:55:15;;;;;;;2.67;1.30;;;;;;;13.46;70.73;95099.63;4993213;28;20624;-74
2022/07/13 00:57:41;;;;;;;1.25;1.00;;;;;;;13.25;71.48;95101.56;4992979;28;20208;-74
2022/07/13 01:00:11;;;;;;;1.65;1.33;;;;;;;13.17;71.63;95102.44;4992719;28;20292;-74
2022/07/13 01:02:38;;;;;;;2.85;1.55;;;;;;;13.12;71.98;95088.97;4992900;28;20677;-74
2022/07/13 01:05:08;;;;;;;2.03;1.33;;;;;;;13.04;71.98;95090.66;4992633;28;20214;-75
2022/07/13 01:07:35;;;;;;;2.38;1.10;;;;;;;13.08;71.51;95090.78;4992800;28;20549;-74
2022/07/13 01:10:05;;;;;;;3.05;1.00;;;;;;;13.09;71.62;95086.94;4992489;28;20209;-74
2022/07/13 01:12:33;;;;;;;1.27;0.98;;;;;;;13.08;72.04;95088.88;4991985;28;20254;-74
2022/07/13 01:15:00;;;;;;;2.20;1.60;;;;;;;12.74;73.27;95111.66;4992699;28;20712;-74
2022/07/13 01:17:28;;;;;;;1.88;1.08;;;;;;;12.54;74.78;95115.13;4992594;28;20202;-74
2022/07/13 01:19:56;;;;;;;2.85;1.50;;;;;;;12.36;75.38;95111.69;4992218;28;20229;-74
2022/07/13 01:22:26;;;;;;;3.40;1.50;;;;;;;12.31;75.01;95111.06;4992320;28;20210;-74
2022/07/13 01:24:56;;;;;;;2.80;1.50;;;;;;;12.28;74.66;95106.31;4992657;28;20214;-74
2022/07/13 01:27:23;;;;;;;1.63;1.30;;;;;;;12.34;74.60;95102.28;4992288;28;20804;-74
2022/07/13 01:29:50;;;;;;;1.83;1.50;;;;;;;12.36;75.15;95108.19;4991999;28;20735;-74
2022/07/13 01:32:17;;;;;;;4.38;1.58;;;;;;;12.40;75.69;95106.41;4992031;28;20198;-75
2022/07/13 01:34:44;;;;;;;2.63;1.58;;;;;;;12.44;75.61;95105.41;4992260;28;20214;-74
2022/07/13 01:37:10;;;;;;;1.92;1.45;;;;;;;12.39;75.83;95094.75;4992489;28;20268;-74
2022/07/13 01:39:37;;;;;;;2.72;1.60;;;;;;;12.45;75.53;95100.78;4992255;28;20288;-74
2022/07/13 01:42:06;;;;;;;6.53;1.40;;;;;;;12.32;75.51;95096.34;4992258;28;20320;-74
2022/07/13 01:44:32;;;;;;;2.17;1.45;;;;;;;12.19;76.23;95100.88;4991472;28;20229;-74
2022/07/13 01:47:00;;;;;;;3.50;1.95;;;;;;;12.23;75.93;95090.19;4992109;28;20222;-74
2022/07/13 01:49:26;;;;;;;2.30;1.60;;;;;;;12.33;75.85;95089.81;4992004;28;20665;-75
2022/07/13 01:51:53;;;;;;;1.83;1.20;;;;;;;12.31;75.51;95089.34;4991621;28;20661;-74
2022/07/13 01:54:20;;;;;;;1.75;1.40;;;;;;;12.41;75.46;95089.78;4991366;28;20229;-74
2022/07/13 01:56:47;;;;;;;1.45;1.23;;;;;;;12.41;75.62;95078.13;4991739;28;20198;-74
2022/07/13 01:59:15;;;;;;;3.17;1.55;;;;;;;12.45;75.34;95089.91;4991562;28;20677;-74
2022/07/13 02:01:42;;;;;;;2.85;1.58;;;;;;;12.46;75.06;95080.63;4991118;28;20233;-75
2022/07/13 02:04:09;;;;;;;2.50;1.70;;;;;;;12.55;75.04;95089.56;4991345;28;20208;-74
2022/07/13 02:06:36;;;;;;;1.80;1.35;;;;;;;12.46;75.30;95092.28;4991700;28;20273;-74
2022/07/13 02:09:03;;;;;;;2.85;1.40;;;;;;;12.30;75.57;95099.41;4991824;28;20205;-74
2022/07/13 02:11:29;;;;;;;3.05;1.33;;;;;;;12.39;75.05;95099.38;4991547;28;20209;-74
2022/07/13 02:13:57;;;;;;;3.05;1.83;;;;;;;12.47;74.49;95109.41;4991522;28;20259;-74
2022/07/13 02:16:25;;;;;;;1.45;1.30;;;;;;;12.33;74.96;95097.97;4991747;28;20233;-74
2022/07/13 02:18:51;;;;;;;4.65;1.70;;;;;;;12.44;74.96;95105.41;4991592;28;20209;-74
2022/07/13 02:21:21;;;;;;;1.88;1.40;;;;;;;12.46;74.62;95102.38;4991357;28;20282;-74
2022/07/13 02:23:51;;;;;;;1.58;1.38;;;;;;;12.40;74.78;95098.25;4991119;28;20208;-73
2022/07/13 02:26:18;;;;;;;4.00;1.42;;;;;;;12.24;75.65;95105.34;4991465;28;20203;-73
2022/07/13 02:28:44;;;;;;;1.55;1.35;;;;;;;12.18;75.72;95101.22;4991141;28;20220;-74
2022/07/13 02:31:11;;;;;;;1.38;1.15;;;;;;;12.19;76.25;95097.38;4991293;28;20264;-74
2022/07/13 02:33:39;;;;;;;1.35;1.25;;;;;;;12.13;76.63;95095.97;4991065;28;20237;-74
2022/07/13 02:36:06;;;;;;;1.58;1.25;;;;;;;11.99;77.29;95097.00;4991522;28;20280;-74
2022/07/13 02:38:34;;;;;;;2.20;1.45;;;;;;;12.06;77.05;95093.75;4991272;28;20198;-74
2022/07/13 02:41:01;;;;;;;2.45;1.30;;;;;;;12.13;76.75;95098.69;4991076;28;20266;-74
2022/07/13 02:43:27;;;;;;;4.85;1.40;;;;;;;12.17;76.65;95094.97;4990549;28;20659;-74
2022/07/13 02:45:54;;;;;;;1.25;1.08;;;;;;;12.30;75.79;95095.91;4990743;28;20201;-74
2022/07/13 02:48:22;;;;;;;1.25;1.15;;;;;;;12.25;75.78;95096.88;4990786;28;20264;-73
2022/07/13 02:50:50;;;;;;;2.20;1.10;;;;;;;12.30;75.34;95083.09;4990626;28;20633;-75
2022/07/13 02:53:17;;;;;;;2.10;1.40;;;;;;;12.30;74.86;95083.09;4990732;28;20309;-75
2022/07/13 02:55:44;;;;;;;1.48;1.05;;;;;;;12.33;74.64;95085.16;4990005;28;20662;-75
2022/07/13 02:58:11;;;;;;;1.35;1.17;;;;;;;12.30;74.56;95082.34;4990358;28;20208;-75
2022/07/13 03:00:38;;;;;;;2.28;1.27;;;;;;;12.23;74.66;95092.91;4990470;28;20237;-75
2022/07/13 03:03:05;;;;;;;2.75;1.48;;;;;;;12.24;74.64;95079.00;4990036;28;20581;-75
2022/07/13 03:05:31;;;;;;;2.80;1.48;;;;;;;12.29;74.61;95086.16;4990815;28;20605;-76
2022/07/13 03:07:59;;;;;;;2.80;1.50;;;;;;;12.35;74.73;95093.00;4990579;28;20256;-73
2022/07/13 03:10:27;;;;;;;3.28;1.80;;;;;;;12.22;75.29;95088.59;4990379;28;20617;-73
2022/07/13 03:12:54;;;;;;;1.63;1.42;;;;;;;12.09;76.15;95093.09;4990391;28;20209;-73
2022/07/13 03:15:21;;;;;;;3.58;2.22;;;;;;;12.37;75.83;95094.28;4990502;28;20768;-73
2022/07/13 03:17:48;;;;;;;2.35;1.73;;;;;;;12.80;74.86;95101.38;4990552;28;20205;-74
2022/07/13 03:20:15;;;;;;;4.97;1.65;;;;;;;13.43;72.85;95086.69;4990660;28;20614;-74
2022/07/13 03:22:42;;;;;;;2.20;1.70;;;;;;;14.12;70.80;95071.53;4990279;28;20275;-74
2022/07/13 03:25:11;;;;;;;2.00;1.40;;;;;;;15.07;68.92;95076.53;4990017;28;20209;-74
2022/07/13 03:27:38;;;;;;;3.70;1.60;;;;;;;15.97;64.62;95069.72;4977615;28;20260;-75
2022/07/13 03:30:07;;;;;;;2.88;1.42;;;;;;;16.92;61.74;95071.28;4990972;28;20256;-75
2022/07/13 03:32:36;;;;;;;2.92;2.03;;;;;;;18.07;58.55;95058.75;4970965;28;20206;-74
2022/07/13 03:35:03;;;;;;;1.95;1.75;;;;;;;18.79;55.82;95056.03;4986406;28;20197;-75
2022/07/13 03:37:29;;;;;;;2.80;1.83;;;;;;;19.79;53.15;95053.47;4994349;28;20669;-75
2022/07/13 03:39:56;;;;;;;2.53;2.10;;;;;;;20.46;51.13;95053.38;4994030;28;20236;-74
2022/07/13 03:42:25;;;;;;;2.72;1.77;;;;;;;20.86;49.46;95054.47;4994327;28;20473;-72
2022/07/13 03:44:51;;;;;;;4.28;2.13;;;;;;;21.76;48.13;95045.53;4994154;28;20264;-73
2022/07/13 03:47:18;;;;;;;2.20;1.38;;;;;;;22.10;47.27;95044.09;4994608;28;20198;-75
2022/07/13 03:49:45;;;;;;;4.93;1.70;;;;;;;22.54;46.00;95046.53;4994008;28;20719;-74
2022/07/13 03:52:12;;;;;;;3.03;1.52;;;;;;;22.58;45.32;95041.78;4994103;28;20263;-76
2022/07/13 03:54:39;;;;;;;4.15;1.67;;;;;;;22.90;44.18;95046.53;4993508;28;20673;-76
2022/07/13 03:57:06;;;;;;;3.17;1.63;;;;;;;22.97;43.39;95052.03;4994782;28;20202;-75
2022/07/13 03:59:34;;;;;;;3.35;1.80;;;;;;;23.04;42.99;95063.09;4998485;28;20193;-75
2022/07/13 04:02:01;;;;;;;5.28;2.80;;;;;;;23.48;41.75;95053.53;5004431;28;20465;-74
2022/07/13 04:04:27;;;;;;;3.47;2.03;;;;;;;24.04;40.50;95047.78;4994581;28;20205;-77
2022/07/13 04:06:54;;;;;;;3.50;2.17;;;;;;;24.49;39.54;95045.16;5000678;28;20204;-72
2022/07/13 04:09:21;;;;;;;2.17;1.85;;;;;;;25.03;38.87;95045.53;4994072;28;20218;-72
2022/07/13 04:11:49;;;;;;;4.80;2.22;;;;;;;25.23;38.79;95040.97;5009509;28;20275;-72
2022/07/13 04:14:16;;;;;;;2.97;1.98;;;;;;;25.09;38.52;95038.34;4995043;28;20743;-75
2022/07/13 04:16:44;;;;;;;3.60;2.20;;;;;;;24.45;40.45;95055.47;4993746;28;20206;-74
2022/07/13 04:19:10;;;;;;;9.27;2.33;;;;;;;24.69;40.02;95059.25;4993572;28;20213;-76
2022/07/13 04:21:38;;;;;;;4.40;2.40;;;;;;;23.40;41.60;95064.59;4993869;28;20233;-75
2022/07/13 04:24:05;;;;;;;3.03;2.25;;;;;;;24.45;40.86;95061.03;4993161;28;20205;-74
2022/07/13 04:26:32;;;;;;;5.20;1.92;;;;;;;24.29;39.47;95063.50;4993280;28;20209;-75
2022/07/13 04:28:59;;;;;;;4.00;2.33;;;;;;;23.93;40.28;95068.38;4992422;28;20209;-75
2022/07/13 04:31:26;;;;;;;2.75;2.40;;;;;;;24.56;39.41;95067.28;4993142;28;20291;-76
2022/07/13 04:33:54;;;;;;;3.67;2.42;;;;;;;25.33;37.36;95064.25;4992881;28;20237;-76
2022/07/13 04:36:23;;;;;;;3.95;2.30;;;;;;;24.57;38.95;95068.84;4992841;28;20727;-76
2022/07/13 04:38:50;;;;;;;2.10;1.95;;;;;;;25.11;38.05;95069.22;4980016;28;20252;-77
2022/07/13 04:41:17;;;;;;;4.75;2.30;;;;;;;25.87;36.59;95064.47;4993372;28;20304;-76
2022/07/13 04:43:45;;;;;;;3.20;2.22;;;;;;;26.41;36.04;95059.81;4993530;28;20262;-75
2022/07/13 04:46:12;;;;;;;4.53;2.38;;;;;;;27.13;34.51;95055.50;4993255;28;20202;-75
2022/07/13 04:48:39;;;;;;;4.70;2.35;;;;;;;27.10;34.56;95055.56;4993393;28;20275;-75
2022/07/13 04:51:07;;;;;;;3.75;2.80;;;;;;;27.69;33.86;95055.69;4993046;28;20732;-76
2022/07/13 04:53:34;;;;;;;2.60;2.40;;;;;;;27.33;34.30;95058.34;4993037;28;20201;-77
2022/07/13 04:56:01;;;;;;;3.38;2.42;;;;;;;28.48;33.44;95057.66;4992714;28;20201;-76
2022/07/13 04:58:28;;;;;;;5.30;2.80;;;;;;;28.07;33.69;95055.31;4992366;28;20209;-76
2022/07/13 05:00:54;;;;;;;3.45;2.20;;;;;;;28.48;32.29;95052.84;4992457;28;20640;-76
2022/07/13 05:03:21;;;;;;;3.67;2.20;;;;;;;27.23;34.03;95064.88;4992827;28;20202;-76
2022/07/13 05:05:48;;;;;;;4.75;2.75;;;;;;;27.23;34.48;95062.09;4993044;28;20276;-76
2022/07/13 05:08:16;;;;;;;3.28;2.05;;;;;;;25.90;37.03;95072.75;4992097;28;20206;-76
2022/07/13 05:10:43;;;;;;;3.28;2.08;;;;;;;25.60;37.26;95069.91;4992710;28;20210;-76
2022/07/13 05:13:10;;;;;;;2.47;2.03;;;;;;;26.22;36.65;95063.25;4992790;28;20205;-76
2022/07/13 05:15:36;;;;;;;2.08;1.88;;;;;;;25.88;37.00;95064.06;4992117;28;20557;-76
2022/07/13 05:18:03;;;;;;;4.45;2.30;;;;;;;26.02;36.29;95069.44;4992618;28;20263;-76
2022/07/13 05:20:30;;;;;;;2.40;2.00;;;;;;;25.80;37.70;95068.91;4992290;28;20245;-76
2022/07/13 05:22:57;;;;;;;3.20;1.80;;;;;;;27.07;35.43;95050.84;4992246;28;20205;-75
2022/07/13 05:25:25;;;;;;;4.82;2.25;;;;;;;25.99;36.84;95064.72;4991885;28;20611;-76
2022/07/13 05:27:52;;;;;;;2.38;1.90;;;;;;;26.69;36.03;95059.38;4991694;28;20206;-76
2022/07/13 05:30:19;;;;;;;3.53;1.58;;;;;;;26.08;35.84;95070.56;4991272;28;20206;-75
2022/07/13 05:32:46;;;;;;;1.95;1.35;;;;;;;26.88;34.47;95064.25;4991725;28;20296;-78
2022/07/13 05:35:13;;;;;;;2.05;1.50;;;;;;;27.55;34.18;95065.09;4992127;28;20202;-76
2022/07/13 05:37:39;;;;;;;2.17;1.23;;;;;;;26.31;34.36;95071.88;4992384;28;20205;-76
2022/07/13 05:40:07;;;;;;;3.15;1.35;;;;;;;27.07;32.57;95061.97;4992339;28;20256;-76
2022/07/13 05:42:35;;;;;;;6.38;1.45;;;;;;;26.22;34.69;95074.34;4992205;28;20276;-76
2022/07/13 05:45:02;;;;;;;8.25;1.90;;;;;;;23.35;38.08;95092.69;4991685;28;20197;-73
2022/07/13 05:47:29;;;;;;;2.70;1.15;;;;;;;23.51;38.29;95080.41;4992167;28;20210;-74
2022/07/13 05:49:56;;;;;;;1.38;1.23;;;;;;;23.84;38.29;95085.44;4991821;28;20206;-77
2022/07/13 05:52:22;;;;;;;2.60;1.42;;;;;;;24.74;36.87;95084.53;4992052;28;20253;-75
2022/07/13 05:54:49;;;;;;;2.67;1.20;;;;;;;24.58;36.88;95081.50;4991648;28;20673;-76
2022/07/13 05:57:16;;;;;;;1.63;0.90;;;;;;;25.34;35.81;95079.69;4991658;28;20221;-77
2022/07/13 05:59:44;;;;;;;4.65;1.38;;;;;;;26.40;33.50;95069.34;4991092;28;20210;-74
2022/07/13 06:02:11;;;;;;;1.77;1.13;;;;;;;26.59;33.41;95071.47;4991518;28;20709;-74
2022/07/13 06:04:38;;;;;;;3.45;1.23;;;;;;;27.79;31.55;95068.63;4991417;28;20288;-72
2022/07/13 06:07:05;;;;;;;2.83;1.48;;;;;;;27.15;32.49;95066.22;4991706;28;20205;-76
2022/07/13 06:09:32;;;;;;;2.17;1.33;;;;;;;27.50;33.14;95056.44;4991093;28;20205;-76
2022/07/13 06:11:59;;;;;;;2.00;1.00;;;;;;;27.80;32.52;95052.69;4991526;28;20201;-76
2022/07/13 06:14:26;;;;;;;2.17;0.80;;;;;;;26.95;33.11;95059.78;4991621;28;20202;-76
2022/07/13 06:16:54;;;;;;;3.28;0.95;;;;;;;24.65;36.10;95072.34;4991803;28;20577;-73
2022/07/13 06:19:21;;;;;;;1.10;0.90;;;;;;;24.73;35.87;95071.91;4991112;28;20756;-75
2022/07/13 06:21:48;;;;;;;1.30;1.00;;;;;;;24.27;36.73;95065.88;4991753;28;20225;-74
2022/07/13 06:24:15;;;;;;;1.77;0.90;;;;;;;24.43;36.92;95064.19;4991107;28;20209;-76
2022/07/13 06:26:42;;;;;;;1.42;0.90;;;;;;;26.12;34.46;95062.94;4991647;28;20202;-75
2022/07/13 06:29:08;;;;;;;1.38;1.02;;;;;;;26.30;34.22;95059.19;4991523;28;20276;-73
2022/07/13 06:31:35;;;;;;;2.92;0.90;;;;;;;25.91;34.57;95059.66;4990642;28;20209;-76
2022/07/13 06:34:03;;;;;;;1.50;0.90;;;;;;;24.97;34.35;95059.06;4990330;28;20597;-75
2022/07/13 06:36:30;;;;;;;1.15;0.85;;;;;;;25.24;33.96;95064.75;4991472;28;20205;-73
2022/07/13 06:38:57;;;;;;;1.65;0.95;;;;;;;25.12;34.35;95059.72;4991704;28;20268;-76
2022/07/13 06:41:24;;;;;;;3.08;0.88;;;;;;;25.06;34.57;95056.59;4990650;28;20700;-76
2022/07/13 06:43:51;;;;;;;1.40;1.30;;;;;;;26.09;33.12;95055.47;4991165;28;20225;-73
2022/07/13 06:46:18;;;;;;;4.53;0.98;;;;;;;25.73;33.97;95054.31;4991447;28;20284;-74
2022/07/13 06:48:44;;;;;;;0.90;0.80;;;;;;;25.18;34.39;95048.94;4991266;28;20206;-74
2022/07/13 06:51:13;;;;;;;2.00;1.13;;;;;;;26.19;32.87;95048.19;4991198;28;20210;-74
2022/07/13 06:53:39;;;;;;;1.48;0.85;;;;;;;24.80;34.80;95055.19;4991043;28;20234;-76
2022/07/13 06:56:07;;;;;;;1.70;0.88;;;;;;;25.52;33.92;95054.56;4991256;28;20206;-75
2022/07/13 06:58:33;;;;;;;2.60;1.00;;;;;;;25.46;33.56;95046.66;4991242;28;20268;-75
2022/07/13 07:01:00;;;;;;;2.97;0.95;;;;;;;26.74;32.47;95045.00;4990292;28;20612;-75
2022/07/13 07:03:27;;;;;;;2.85;1.10;;;;;;;25.22;33.97;95036.63;4990703;28;20248;-76
2022/07/13 07:05:55;;;;;;;1.08;0.90;;;;;;;27.22;32.75;95043.81;4990575;28;20539;-77
2022/07/13 07:08:23;;;;;;;0.95;0.75;;;;;;;27.61;30.88;95036.78;4990521;28;20237;-76
2022/07/13 07:10:50;;;;;;;1.42;0.95;;;;;;;25.12;33.39;95054.16;4989746;28;20356;-78
2022/07/13 07:13:17;;;;;;;3.88;1.00;;;;;;;24.91;35.21;95054.31;4990728;28;20851;-77
2022/07/13 07:15:44;;;;;;;0.93;0.80;;;;;;;25.53;34.08;95053.34;4991041;28;20256;-76
2022/07/13 07:18:12;;;;;;;1.55;0.60;;;;;;;25.41;34.01;95055.47;4990879;28;20205;-77
2022/07/13 07:20:39;;;;;;;1.38;0.98;;;;;;;26.22;33.00;95054.91;4990544;28;20664;-77
2022/07/13 07:23:06;;;;;;;1.88;0.95;;;;;;;26.50;31.95;95038.66;4990882;28;20288;-77
2022/07/13 07:25:35;;;;;;;1.55;1.05;;;;;;;27.08;31.30;95046.84;4990500;28;20213;-77
2022/07/13 07:28:02;;;;;;;1.95;0.88;;;;;;;27.61;31.21;95050.72;4990875;28;20209;-77
2022/07/13 07:30:29;;;;;;;0.80;0.80;;;;;;;27.05;31.29;95050.50;4990631;28;20210;-77
2022/07/13 07:32:56;;;;;;;2.17;0.85;;;;;;;26.82;31.17;95052.03;4990059;28;20233;-75
2022/07/13 07:35:23;;;;;;;2.17;0.80;;;;;;;26.92;31.34;95055.06;4990648;28;20217;-78
2022/07/13 07:37:50;;;;;;;1.05;0.95;;;;;;;26.19;32.75;95062.88;4990927;28;20579;-76
2022/07/13 07:40:17;;;;;;;1.58;0.80;;;;;;;24.66;34.89;95069.16;4990668;28;20272;-77
2022/07/13 07:42:45;;;;;;;2.15;0.80;;;;;;;24.45;34.72;95058.25;4990487;28;20284;-75
2022/07/13 07:45:12;;;;;;;1.55;1.00;;;;;;;25.34;34.49;95061.06;4989945;28;20213;-75
2022/07/13 07:47:40;;;;;;;4.75;1.73;;;;;;;26.82;33.29;95048.44;4990359;28;20748;-77
2022/07/13 07:50:09;;;;;;;2.67;0.95;;;;;;;25.91;32.58;95054.91;4990415;28;20240;-77
2022/07/13 07:52:36;;;;;;;1.13;0.80;;;;;;;25.93;33.26;95057.28;4990683;28;20213;-76
2022/07/13 07:55:03;;;;;;;1.40;0.80;;;;;;;26.43;31.55;95046.28;4977843;28;20231;-76
2022/07/13 07:57:30;;;;;;;0.93;0.80;;;;;;;25.73;33.25;95049.56;4990211;28;20206;-76
2022/07/13 07:59:58;;;;;;;1.58;0.70;;;;;;;26.19;32.06;95043.41;4990094;28;20206;-76
2022/07/13 08:02:25;;;;;;;1.45;0.70;;;;;;;26.12;31.67;95043.50;4989559;28;20273;-77
2022/07/13 08:04:52;;;;;;;0.80;0.70;;;;;;;26.07;32.42;95055.09;4989604;28;20669;-77
2022/07/13 08:07:19;;;;;;;0.82;0.70;;;;;;;25.77;32.58;95049.53;4990765;28;20280;-76
2022/07/13 08:09:46;;;;;;;2.28;0.70;;;;;;;25.48;32.57;95055.38;4990284;28;20565;-75
2022/07/13 08:12:12;;;;;;;1.73;0.95;;;;;;;25.25;33.38;95052.47;4990094;28;20575;-76
2022/07/13 08:14:39;;;;;;;3.22;0.90;;;;;;;24.95;34.85;95055.13;4989871;28;20272;-75
2022/07/13 08:17:08;;;;;;;1.55;0.63;;;;;;;24.61;33.60;95052.19;4990124;28;20205;-74
2022/07/13 08:19:36;;;;;;;1.42;0.70;;;;;;;24.50;34.20;95045.94;4990386;28;20301;-75
2022/07/13 08:22:03;;;;;;;0.90;0.70;;;;;;;24.48;33.87;95051.09;4993051;28;20253;-74
2022/07/13 08:24:30;;;;;;;1.38;0.90;;;;;;;25.89;32.94;95057.31;4993700;28;20735;-74
2022/07/13 08:26:57;;;;;;;1.52;0.70;;;;;;;25.88;33.64;95052.94;4993708;28;20249;-75
2022/07/13 08:29:23;;;;;;;0.70;0.63;;;;;;;26.32;33.47;95046.44;4993712;28;20209;-75
2022/07/13 08:31:50;;;;;;;1.45;0.90;;;;;;;26.43;33.61;95040.72;4993627;28;20225;-76
2022/07/13 08:39:48;;;;;;;0.82;0.75;;;;;;;25.09;33.19;95054.97;4993551;28;20225;-76
2022/07/13 08:42:15;;;;;;;2.75;0.75;;;;;;;25.85;30.80;95045.44;4993460;28;20344;-76
2022/07/13 08:44:42;;;;;;;3.03;0.98;;;;;;;26.64;32.01;95034.84;4992787;28;20600;-75
2022/07/13 08:47:10;;;;;;;3.33;1.08;;;;;;;27.14;33.90;95034.03;4993196;28;20202;-77
2022/07/13 08:49:39;;;;;;;2.58;0.90;;;;;;;26.40;32.73;95041.56;4993510;28;20629;-77
2022/07/13 08:52:06;;;;;;;2.10;1.40;;;;;;;27.02;32.29;95037.44;4993506;28;20206;-76
2022/07/13 08:54:33;;;;;;;2.22;0.98;;;;;;;27.12;32.50;95037.25;4993088;28;20739;-74
2022/07/13 08:57:00;;;;;;;1.30;0.80;;;;;;;26.46;30.90;95045.44;4993469;28;20206;-77
2022/07/13 08:59:27;;;;;;;0.63;0.60;;;;;;;25.26;31.68;95058.78;4993059;28;20681;-74
2022/07/13 09:01:54;;;;;;;1.02;0.63;;;;;;;24.73;32.76;95049.72;4993178;28;20234;-73
2022/07/13 09:04:22;;;;;;;2.15;0.75;;;;;;;25.84;32.72;95043.88;4992634;28;20316;-75
2022/07/13 09:06:50;;;;;;;0.82;0.60;;;;;;;26.86;30.72;95024.16;4992089;28;20661;-75
2022/07/13 09:09:35;;;;;;;1.17;0.60;;;;;;;25.06;33.19;95055.81;4992539;28;20616;-74
2022/07/13 09:12:15;;;;;;;5.20;1.00;;;;;;;25.68;32.74;95054.81;4992297;28;20216;-77
2022/07/13 09:14:42;;;;;;;1.48;0.60;;;;;;;25.73;32.61;95048.78;4981238;28;20641;-75
2022/07/13 09:17:19;;;;;;;0.75;0.73;;;;;;;27.09;30.61;95037.31;4992309;28;20608;-76
2022/07/13 09:19:46;;;;;;;0.80;0.63;;;;;;;26.87;30.56;95025.75;4992785;28;20289;-76
2022/07/13 09:22:14;;;;;;;2.97;1.02;;;;;;;26.28;31.25;95040.16;4992445;28;20320;-77
2022/07/13 09:24:45;;;;;;;2.92;0.80;;;;;;;26.69;32.03;95030.78;4992926;28;20202;-74
2022/07/13 09:27:12;;;;;;;1.33;0.70;;;;;;;25.04;32.64;95036.81;4992100;28;20659;-73
2022/07/13 09:29:39;;;;;;;0.93;0.80;;;;;;;24.69;33.99;95032.34;4992434;28;20205;-77
2022/07/13 09:32:08;;;;;;;2.25;1.08;;;;;;;24.46;35.49;95045.97;4991833;28;20217;-76
2022/07/13 09:34:46;;;;;;;1.67;0.80;;;;;;;25.34;34.81;95033.34;4992055;28;20237;-75
2022/07/13 09:37:16;;;;;;;3.47;1.08;;;;;;;25.75;33.97;95043.59;4991502;28;20875;-75
2022/07/13 09:40:07;;;;;;;1.13;0.65;;;;;;;26.05;31.60;95042.81;4992189;28;20209;-74
2022/07/13 09:42:37;;;;;;;2.03;0.65;;;;;;;26.80;31.89;95026.63;4991721;28;20307;-74
2022/07/13 09:47:53;;;;;;;1.48;0.70;;;;;;;26.74;32.76;95028.34;4991904;28;20197;-77
2022/07/13 09:50:22;;;;;;;0.80;0.70;;;;;;;26.90;30.33;95022.91;4992482;28;20252;-76
2022/07/13 09:52:51;;;;;;;0.70;0.65;;;;;;;26.11;31.13;95030.81;4992084;28;20611;-75
2022/07/13 09:55:20;;;;;;;0.68;0.68;;;;;;;27.11;30.19;95023.75;4992272;28;20222;-76
2022/07/13 09:57:49;;;;;;;2.45;0.90;;;;;;;27.02;32.39;95021.53;4991903;28;20292;-78
2022/07/13 10:00:18;;;;;;;7.03;1.20;;;;;;;27.36;32.02;95021.31;4992102;28;20256;-76
2022/07/13 10:02:48;;;;;;;1.33;0.82;;;;;;;26.68;32.69;95023.66;4991596;28;20225;-75
2022/07/13 10:05:16;;;;;;;0.70;0.70;;;;;;;26.76;32.19;95008.47;4991746;28;20216;-76
2022/07/13 10:07:44;;;;;;;1.38;0.70;;;;;;;26.47;32.42;95019.25;4990983;28;20622;-76
2022/07/13 10:10:15;;;;;;;0.85;0.60;;;;;;;25.86;33.17;95019.25;4992008;28;20212;-76
2022/07/13 10:12:43;;;;;;;0.80;0.80;;;;;;;25.72;34.30;95013.88;4991556;28;20197;-76
2022/07/13 10:15:13;;;;;;;0.80;0.80;;;;;;;25.08;34.60;95011.81;4991738;28;20502;-76
2022/07/13 10:17:40;;;;;;;5.65;0.73;;;;;;;23.90;36.14;95020.19;4990941;28;20974;-77
2022/07/13 10:20:11;;;;;;;0.90;0.70;;;;;;;23.92;35.40;95023.31;4991635;28;20217;-77
2022/07/13 10:22:45;;;;;;;1.88;0.60;;;;;;;23.26;35.59;95036.97;4991413;28;20253;-75
2022/07/13 10:25:13;;;;;;;0.68;0.60;;;;;;;23.03;35.97;95020.84;4991133;28;20644;-75
2022/07/13 10:27:42;;;;;;;2.17;0.70;;;;;;;23.72;34.66;95013.94;4991514;28;20213;-76
2022/07/13 10:30:10;;;;;;;1.00;0.70;;;;;;;24.54;34.51;95013.47;4991014;28;20217;-74
2022/07/13 10:32:39;;;;;;;1.05;0.80;;;;;;;25.66;32.85;95005.25;4990277;28;20632;-75
2022/07/13 10:35:08;;;;;;;2.15;0.80;;;;;;;25.92;32.24;94998.19;4990885;28;20673;-75
2022/07/13 10:38:12;;;;;;;2.53;0.90;;;;;;;26.29;33.49;94990.94;4991124;28;20709;-73
2022/07/13 10:40:41;;;;;;;1.05;0.75;;;;;;;25.38;33.43;94995.25;4980139;28;20210;-73
2022/07/13 10:43:14;;;;;;;1.00;0.63;;;;;;;24.60;35.24;94995.97;4990727;28;20708;-76
2022/07/13 10:45:43;;;;;;;0.77;0.60;;;;;;;23.92;35.08;95001.19;4991263;28;20248;-76
2022/07/13 10:48:40;;;;;;;0.50;0.50;;;;;;;23.41;36.96;95015.63;4991182;28;20236;-75
2022/07/13 10:51:18;;;;;;;1.48;0.70;;;;;;;23.20;37.89;95016.47;4991148;28;20193;-75
2022/07/13 10:54:09;;;;;;;1.98;0.70;;;;;;;23.32;38.46;95012.50;4991241;28;20284;-74
2022/07/13 10:56:37;;;;;;;1.23;0.63;;;;;;;23.10;38.36;95010.97;4990951;28;20912;-78
2022/07/13 10:59:05;;;;;;;0.57;0.55;;;;;;;23.31;38.51;95006.16;4991395;28;20209;-74
2022/07/13 11:01:50;;;;;;;2.20;0.70;;;;;;;24.03;36.68;94999.16;4991419;28;20316;-75
2022/07/13 11:04:19;;;;;;;2.92;0.82;;;;;;;24.71;36.97;94985.63;4990882;28;20221;-76
2022/07/13 11:07:07;;;;;;;2.72;0.80;;;;;;;25.03;34.81;94995.63;4991128;28;20206;-76
2022/07/13 11:09:34;;;;;;;1.35;0.90;;;;;;;24.57;34.76;94991.28;4990531;28;20226;-74
2022/07/13 11:12:03;;;;;;;0.88;0.80;;;;;;;25.42;34.17;94984.88;4990892;28;20561;-76
2022/07/13 11:14:49;;;;;;;1.13;0.80;;;;;;;25.59;33.45;94983.09;4990571;28;20229;-75
2022/07/13 11:17:21;;;;;;;1.23;0.60;;;;;;;25.88;33.55;94977.22;4990818;28;20683;-78
2022/07/13 11:19:53;;;;;;;1.40;0.60;;;;;;;26.05;32.59;94976.97;4990795;28;20209;-74
2022/07/13 11:22:20;;;;;;;1.45;0.80;;;;;;;25.33;34.29;94976.28;4990405;28;20292;-74
2022/07/13 11:27:55;;;;;;;1.10;0.88;;;;;;;25.25;35.69;94980.34;4975641;28;20560;-75
2022/07/13 11:30:30;;;;;;;1.20;0.80;;;;;;;26.08;33.58;94969.78;4990972;28;20271;-75
2022/07/13 11:32:57;;;;;;;0.70;0.60;;;;;;;25.58;32.39;94975.97;4990400;28;20233;-75
2022/07/13 11:35:25;;;;;;;1.65;0.80;;;;;;;26.11;32.88;94966.94;4990383;28;20296;-76
2022/07/13 11:37:53;;;;;;;1.17;0.57;;;;;;;26.57;31.97;94951.56;4990297;28;20514;-76
2022/07/13 11:40:28;;;;;;;2.97;0.80;;;;;;;26.82;32.87;94951.94;4989940;28;20205;-77
2022/07/13 11:42:59;;;;;;;1.33;0.88;;;;;;;26.79;31.84;94947.22;4990324;28;20312;-74
2022/07/13 11:45:31;;;;;;;1.25;0.80;;;;;;;26.63;32.54;94947.13;4990779;28;20194;-76
2022/07/13 11:47:59;;;;;;;0.90;0.50;;;;;;;26.08;32.46;94958.69;4990752;28;20194;-77
2022/07/13 11:50:40;;;;;;;0.90;0.60;;;;;;;25.81;33.92;94955.91;4990621;28;20205;-75